createdAt,value
2023-02-26T00:01:25.112Z,1.90
2023-02-26T00:03:53.119Z,1.90
2023-02-26T00:13:44.409Z,1.50
2023-02-26T00:16:36.245Z,1.60
2023-02-26T00:19:06.386Z,1.50
2023-02-26T00:24:02.382Z,1.70
2023-02-26T00:26:31.311Z,1.60
2023-02-26T00:31:26.724Z,1.70
2023-02-26T00:33:56.414Z,1.70
2023-02-26T00:36:25.546Z,1.70
2023-02-26T00:38:58.589Z,2.40
2023-02-26T00:41:25.781Z,1.80
2023-02-26T00:43:52.769Z,1.70
2023-02-26T00:46:54.701Z,1.50
2023-02-26T00:49:40.249Z,1.70
2023-02-26T00:52:14.214Z,1.60
2023-02-26T00:57:08.322Z,1.70
2023-02-26T01:04:29.906Z,1.60
2023-02-26T01:06:58.538Z,1.60
2023-02-26T01:09:30.420Z,1.40
2023-02-26T01:12:02.916Z,1.60
2023-02-26T01:14:34.154Z,1.60
2023-02-26T01:17:08.880Z,1.40
2023-02-26T01:20:10.290Z,1.50
2023-02-26T01:25:08.402Z,1.50
2023-02-26T01:33:02.776Z,1.40
2023-02-26T01:35:51.794Z,1.40
2023-02-26T01:38:53.975Z,1.40
2023-02-26T01:41:48.223Z,1.40
2023-02-26T01:44:19.693Z,1.40
2023-02-26T01:47:01.353Z,1.60
2023-02-26T01:49:29.005Z,0.80
2023-02-26T01:52:01.141Z,1.40
2023-02-26T01:54:33.736Z,1.30
2023-02-26T01:57:08.620Z,1.60
2023-02-26T01:59:41.033Z,1.40
2023-02-26T02:02:10.264Z,1.40
2023-02-26T02:07:06.639Z,1.50
2023-02-26T02:09:34.859Z,1.30
2023-02-26T02:12:23.739Z,1.40
2023-02-26T02:15:08.320Z,1.30
2023-02-26T02:17:48.431Z,1.30
2023-02-26T02:20:43.901Z,1.50
2023-02-26T02:23:27.629Z,1.30
2023-02-26T02:26:19.807Z,1.20
2023-02-26T02:29:28.524Z,1.30
2023-02-26T02:32:06.820Z,1.30
2023-02-26T02:37:19.878Z,1.10
2023-02-26T02:42:13.936Z,1.30
2023-02-26T02:44:46.566Z,1.10
2023-02-26T02:47:17.466Z,1.30
2023-02-26T02:49:50.164Z,1.30
2023-02-26T02:52:23.096Z,0.70
2023-02-26T02:55:15.165Z,1.30
2023-02-26T02:58:03.549Z,1.20
2023-02-26T03:03:36.680Z,1.20
2023-02-26T03:06:04.143Z,1.00
2023-02-26T03:08:38.707Z,1.20
2023-02-26T03:13:33.130Z,0.90
2023-02-26T03:16:16.559Z,1.10
2023-02-26T03:18:52.585Z,1.10
2023-02-26T03:22:01.778Z,0.90
2023-02-26T03:27:07.967Z,0.70
2023-02-26T03:29:47.314Z,0.80
2023-02-26T03:32:30.004Z,0.90
2023-02-26T03:35:09.371Z,0.90
2023-02-26T03:37:47.153Z,0.70
2023-02-26T03:40:32.843Z,0.90
2023-02-26T03:43:20.079Z,0.80
2023-02-26T03:45:49.487Z,0.80
2023-02-26T03:50:50.740Z,0.80
2023-02-26T03:53:25.352Z,0.80
2023-02-26T04:04:13.892Z,1.80
2023-02-26T04:06:41.945Z,0.70
2023-02-26T04:14:04.248Z,0.70
2023-02-26T04:16:31.208Z,0.90
2023-02-26T04:23:52.542Z,0.70
2023-02-26T04:28:46.671Z,1.40
2023-02-26T04:43:30.850Z,0.60
2023-02-26T04:45:57.688Z,0.70
2023-02-26T05:00:50.071Z,0.50
2023-02-26T05:03:17.369Z,0.40
2023-02-26T05:05:44.680Z,0.40
2023-02-26T05:08:11.647Z,0.30
2023-02-26T05:15:33.915Z,0.20
2023-02-26T05:18:00.825Z,0.40
2023-02-26T05:25:22.742Z,0.50
2023-02-26T05:30:17.343Z,0.20
2023-02-26T05:50:03.510Z,0.10
2023-02-26T05:54:57.804Z,0.30
2023-02-26T06:12:08.892Z,0.30
2023-02-26T06:14:36.344Z,0.10
2023-02-26T06:24:26.598Z,0.30
2023-02-26T06:31:48.423Z,0.50
2023-02-26T06:34:15.761Z,0.20
2023-02-26T06:41:37.118Z,1.30
2023-02-26T06:44:04.147Z,1.00
2023-02-26T06:51:25.914Z,0.10
2023-02-26T07:06:26.580Z,0.30
2023-02-26T07:13:49.122Z,0.30
2023-02-26T07:16:15.915Z,0.30
2023-02-26T07:23:37.280Z,0.40
2023-02-26T07:35:55.553Z,0.50
2023-02-26T07:40:49.755Z,0.70
2023-02-26T07:50:38.593Z,0.30
2023-02-26T07:53:05.473Z,0.40
2023-02-26T07:57:59.925Z,0.10
2023-02-26T08:00:26.886Z,0.10
2023-02-26T08:12:42.928Z,0.10
2023-02-26T08:20:07.735Z,0.30
2023-02-26T08:27:29.266Z,0.60
2023-02-26T08:29:56.227Z,0.70
2023-02-26T08:32:23.345Z,0.50
2023-02-26T08:39:45.265Z,0.60
2023-02-26T08:47:06.921Z,0.50
2023-02-26T08:49:33.760Z,0.50
2023-02-26T08:54:28.056Z,0.50
2023-02-26T08:59:25.561Z,0.50
2023-02-26T09:04:20.001Z,0.40
2023-02-26T09:19:06.804Z,0.40
2023-02-26T09:31:24.753Z,0.40
2023-02-26T09:33:51.657Z,0.60
2023-02-26T09:41:38.359Z,0.30
2023-02-26T09:44:25.166Z,0.40
2023-02-26T09:46:54.795Z,0.30
2023-02-26T09:50:02.073Z,0.40
2023-02-26T09:55:25.300Z,0.60
2023-02-26T10:03:17.616Z,0.40
2023-02-26T10:06:06.410Z,0.50
2023-02-26T10:11:24.122Z,0.50
2023-02-26T10:14:01.779Z,0.50
2023-02-26T10:16:34.964Z,0.60
2023-02-26T10:19:08.739Z,0.50
2023-02-26T10:21:41.714Z,0.30
2023-02-26T10:24:25.178Z,0.60
2023-02-26T10:27:01.556Z,0.70
2023-02-26T10:29:40.879Z,0.60
2023-02-26T10:32:29.014Z,0.90
2023-02-26T10:35:00.928Z,1.40
2023-02-26T10:37:59.898Z,1.10
2023-02-26T10:41:04.779Z,0.80
2023-02-26T10:43:39.871Z,0.80
2023-02-26T10:46:12.690Z,0.80
2023-02-26T10:48:45.019Z,0.70
2023-02-26T10:51:20.641Z,0.70
2023-02-26T10:53:59.713Z,0.70
2023-02-26T10:56:34.296Z,0.80
2023-02-26T11:01:31.411Z,1.00
2023-02-26T11:04:07.164Z,0.80
2023-02-26T11:06:40.291Z,1.10
2023-02-26T11:09:19.986Z,0.90
2023-02-26T11:11:54.603Z,0.80
2023-02-26T11:16:55.611Z,0.70
2023-02-26T11:19:36.646Z,0.70
2023-02-26T11:22:05.291Z,0.80
2023-02-26T11:24:32.237Z,0.70
2023-02-26T11:27:04.392Z,0.90
2023-02-26T11:29:46.561Z,0.70
2023-02-26T11:32:19.109Z,0.80
2023-02-26T11:34:51.267Z,1.00
2023-02-26T11:37:24.609Z,1.00
2023-02-26T11:39:59.007Z,0.80
2023-02-26T11:42:27.536Z,1.00
2023-02-26T11:47:26.622Z,0.80
2023-02-26T11:50:04.595Z,0.40
2023-02-26T11:52:46.324Z,0.60
2023-02-26T11:55:29.759Z,0.90
2023-02-26T12:05:19.411Z,0.40
2023-02-26T12:07:48.050Z,0.60
2023-02-26T12:10:22.109Z,0.60
2023-02-26T12:13:10.324Z,0.50
2023-02-26T12:15:59.111Z,0.70
2023-02-26T12:18:43.851Z,0.50
2023-02-26T12:21:22.597Z,0.50
2023-02-26T12:24:03.145Z,0.50
2023-02-26T12:26:40.519Z,0.50
2023-02-26T12:29:25.825Z,0.70
2023-02-26T12:32:02.007Z,0.70
2023-02-26T12:34:58.289Z,0.60
2023-02-26T12:37:41.492Z,0.60
2023-02-26T12:40:37.052Z,0.60
2023-02-26T12:43:15.048Z,0.60
2023-02-26T12:46:02.042Z,0.60
2023-02-26T12:48:43.591Z,0.80
2023-02-26T12:51:29.113Z,0.70
2023-02-26T12:54:01.639Z,0.70
2023-02-26T12:56:53.102Z,0.70
2023-02-26T12:59:38.115Z,0.50
2023-02-26T13:02:18.974Z,0.30
2023-02-26T13:04:56.131Z,0.70
2023-02-26T13:07:49.786Z,0.60
2023-02-26T13:10:37.904Z,0.60
2023-02-26T13:13:35.817Z,0.60
2023-02-26T13:16:20.367Z,0.60
2023-02-26T13:21:23.854Z,0.30
2023-02-26T13:26:19.523Z,0.70
2023-02-26T13:28:54.909Z,0.60
2023-02-26T13:31:29.842Z,0.70
2023-02-26T13:34:02.254Z,1.50
2023-02-26T13:36:30.125Z,5.00
2023-02-26T13:38:57.191Z,2.50
2023-02-26T13:41:40.833Z,2.10
2023-02-26T13:44:37.267Z,2.20
2023-02-26T13:47:18.453Z,1.40
2023-02-26T13:50:26.708Z,1.20
2023-02-26T13:53:03.786Z,1.20
2023-02-26T13:55:46.557Z,1.10
2023-02-26T13:58:22.483Z,1.40
2023-02-26T14:01:10.197Z,1.00
2023-02-26T14:03:51.852Z,1.00
2023-02-26T14:06:37.425Z,0.80
2023-02-26T14:09:26.558Z,1.00
2023-02-26T14:12:04.631Z,0.70
2023-02-26T14:17:01.479Z,1.00
2023-02-26T14:19:34.332Z,0.90
2023-02-26T14:22:25.881Z,0.90
2023-02-26T14:25:31.194Z,0.90
2023-02-26T14:28:25.351Z,0.90
2023-02-26T14:31:19.843Z,0.70
2023-02-26T14:33:57.373Z,0.70
2023-02-26T14:36:37.075Z,0.40
2023-02-26T14:39:06.946Z,0.40
2023-02-26T14:41:40.065Z,0.30
2023-02-26T14:44:06.952Z,1.00
2023-02-26T14:46:35.518Z,0.60
2023-02-26T14:49:02.561Z,0.30
2023-02-26T14:51:32.141Z,0.40
2023-02-26T14:54:27.935Z,0.20
2023-02-26T14:57:09.474Z,0.30
2023-02-26T15:02:30.526Z,0.30
2023-02-26T15:05:22.659Z,0.20
2023-02-26T15:08:04.703Z,0.00
2023-02-26T15:10:54.020Z,0.20
2023-02-26T15:15:56.031Z,0.10
2023-02-26T15:19:16.256Z,0.30
2023-02-26T15:22:01.333Z,0.00
2023-02-26T15:24:30.559Z,0.00
2023-02-26T15:27:07.607Z,0.00
2023-02-26T15:29:38.968Z,0.10
2023-02-26T15:32:27.717Z,-0.10
2023-02-26T15:35:21.480Z,-0.10
2023-02-26T15:37:53.006Z,0.00
2023-02-26T15:40:20.669Z,0.30
2023-02-26T15:42:51.766Z,1.40
2023-02-26T15:45:46.768Z,0.00
2023-02-26T15:48:30.147Z,0.10
2023-02-26T15:50:59.017Z,0.00
2023-02-26T15:53:41.164Z,0.00
2023-02-26T15:56:19.960Z,-0.20
2023-02-26T15:58:51.032Z,-0.10
2023-02-26T16:01:23.736Z,-0.30
2023-02-26T16:03:52.910Z,-0.30
2023-02-26T16:06:31.721Z,-0.30
2023-02-26T16:09:00.503Z,-0.50
2023-02-26T16:11:36.889Z,-0.30
2023-02-26T16:14:05.303Z,-0.20
2023-02-26T16:16:45.299Z,-0.20
2023-02-26T16:19:17.556Z,-0.20
2023-02-26T16:21:45.652Z,-0.30
2023-02-26T16:24:20.825Z,-0.30
2023-02-26T16:26:52.369Z,-0.20
2023-02-26T16:29:32.163Z,0.70
2023-02-26T16:32:02.798Z,-2.40
2023-02-26T16:34:39.996Z,-0.10
2023-02-26T16:37:26.809Z,-0.30
2023-02-26T16:39:58.686Z,-0.20
2023-02-26T16:42:52.277Z,-0.30
2023-02-26T16:45:20.099Z,0.00
2023-02-26T16:47:51.316Z,-0.50
2023-02-26T16:50:21.754Z,-0.50
2023-02-26T16:53:06.630Z,-0.20
2023-02-26T16:55:37.113Z,-0.10
2023-02-26T16:58:07.826Z,-0.20
2023-02-26T17:00:37.508Z,-0.40
2023-02-26T17:03:17.108Z,-0.30
2023-02-26T17:06:11.859Z,-0.40
2023-02-26T17:08:58.021Z,-0.50
2023-02-26T17:11:33.227Z,-0.50
2023-02-26T17:14:23.526Z,-0.60
2023-02-26T17:16:51.675Z,-0.60
2023-02-26T17:19:19.401Z,-0.50
2023-02-26T17:21:54.399Z,-0.40
2023-02-26T17:24:29.561Z,-0.50
2023-02-26T17:26:57.323Z,-0.70
2023-02-26T17:29:37.309Z,-0.30
2023-02-26T17:32:25.044Z,-0.50
2023-02-26T17:37:20.188Z,-0.50
2023-02-26T17:39:47.794Z,-0.50
2023-02-26T17:42:23.108Z,-0.40
2023-02-26T17:44:50.977Z,-0.40
2023-02-26T17:47:21.419Z,-0.20
2023-02-26T17:49:48.999Z,-0.40
2023-02-26T17:52:16.435Z,-0.40
2023-02-26T17:57:17.641Z,-0.40
2023-02-26T18:02:18.234Z,-0.60
2023-02-26T18:07:16.532Z,-0.40
2023-02-26T18:09:45.015Z,-0.30
2023-02-26T18:12:16.455Z,-0.40
2023-02-26T18:17:14.621Z,-0.40
2023-02-26T18:19:46.345Z,-0.40
2023-02-26T18:22:14.388Z,-0.40
2023-02-26T18:24:41.736Z,-0.40
2023-02-26T18:27:14.969Z,-0.60
2023-02-26T18:32:17.900Z,-0.40
2023-02-26T18:34:45.079Z,0.10
2023-02-26T18:37:18.693Z,-0.40
2023-02-26T18:39:45.987Z,-0.50
2023-02-26T18:42:28.358Z,-0.50
2023-02-26T18:47:23.038Z,-0.30
2023-02-26T18:49:51.541Z,-0.20
2023-02-26T18:52:18.627Z,-0.40
2023-02-26T18:57:12.774Z,-0.40
2023-02-26T18:59:39.578Z,-0.20
2023-02-26T19:04:34.436Z,-0.50
2023-02-26T19:07:01.285Z,-0.20
2023-02-26T19:09:28.821Z,-0.40
2023-02-26T19:11:56.899Z,-0.60
2023-02-26T19:14:24.705Z,-0.50
2023-02-26T19:19:19.240Z,-0.40
2023-02-26T19:24:14.124Z,-0.50
2023-02-26T19:26:42.268Z,-0.40
2023-02-26T19:29:11.483Z,-0.40
2023-02-26T19:31:38.394Z,-0.60
2023-02-26T19:39:02.707Z,2.50
2023-02-26T19:41:30.255Z,-0.50
2023-02-26T19:43:57.559Z,-0.40
2023-02-26T19:46:24.876Z,-0.40
2023-02-26T19:48:51.841Z,-0.50
2023-02-26T19:51:18.942Z,-0.60
2023-02-26T19:56:13.821Z,-0.50
2023-02-26T20:03:36.468Z,-0.20
2023-02-26T20:06:03.467Z,-0.20
2023-02-26T20:10:58.674Z,-0.20
2023-02-26T20:13:30.169Z,0.60
2023-02-26T20:16:01.061Z,-0.30
2023-02-26T20:18:31.043Z,-0.50
2023-02-26T20:20:59.881Z,-0.60
2023-02-26T20:23:27.295Z,-0.60
2023-02-26T20:25:58.190Z,-0.50
2023-02-26T20:28:25.747Z,-0.50
2023-02-26T20:35:53.349Z,-0.30
2023-02-26T20:38:21.325Z,-0.20
2023-02-26T20:40:48.753Z,-0.30
2023-02-26T20:43:15.934Z,-0.40
2023-02-26T20:50:38.385Z,-0.50
2023-02-26T20:53:07.226Z,-0.40
2023-02-26T20:55:35.113Z,-0.30
2023-02-26T20:58:02.596Z,-0.30
2023-02-26T21:05:25.024Z,-0.30
2023-02-26T21:07:52.085Z,-0.20
2023-02-26T21:10:19.601Z,-0.50
2023-02-26T21:12:46.809Z,-0.20
2023-02-26T21:17:43.425Z,-0.40
2023-02-26T21:20:12.805Z,-0.50
2023-02-26T21:22:40.162Z,-0.60
2023-02-26T21:25:08.247Z,-0.60
2023-02-26T21:30:04.284Z,1.10
2023-02-26T21:44:49.704Z,-0.50
2023-02-26T21:47:16.686Z,-0.50
2023-02-26T21:49:43.971Z,-0.60
2023-02-26T21:52:11.996Z,-0.40
2023-02-26T21:54:39.340Z,-0.50
2023-02-26T21:57:06.352Z,-1.00
2023-02-26T22:04:28.403Z,-0.70
2023-02-26T22:19:12.617Z,-0.50
2023-02-26T22:24:07.326Z,-0.40
2023-02-26T22:29:01.852Z,-0.70
2023-02-26T22:36:25.443Z,-0.50
2023-02-26T22:38:52.310Z,-0.50
2023-02-26T22:48:41.084Z,-0.70
2023-02-26T22:53:35.912Z,-0.40
2023-02-26T22:56:02.764Z,-0.60
2023-02-26T23:01:08.579Z,-0.60
2023-02-26T23:03:35.455Z,-0.80
2023-02-26T23:11:02.053Z,-0.40
2023-02-26T23:13:34.445Z,-0.60
2023-02-26T23:16:06.673Z,-0.60
2023-02-26T23:18:34.292Z,-0.40
2023-02-26T23:21:01.141Z,-0.40
2023-02-26T23:25:55.519Z,-0.50
2023-02-26T23:28:24.949Z,-0.40
2023-02-26T23:30:52.279Z,-0.70
2023-02-26T23:35:46.796Z,0.40
2023-02-26T23:38:13.686Z,0.30
2023-02-26T23:43:07.778Z,-0.60
2023-02-26T23:45:34.712Z,-0.80
2023-02-26T23:52:56.013Z,-0.70
